createdAt,value
2022-08-01T00:00:30.374Z,21.60
2022-08-01T00:03:16.624Z,21.50
2022-08-01T00:06:02.554Z,21.40
2022-08-01T00:08:48.373Z,21.30
2022-08-01T00:11:33.983Z,21.30
2022-08-01T00:14:19.502Z,21.20
2022-08-01T00:17:17.767Z,21.00
2022-08-01T00:20:06.099Z,21.00
2022-08-01T00:22:51.367Z,21.10
2022-08-01T00:25:36.947Z,21.20
2022-08-01T00:28:22.435Z,21.20
2022-08-01T00:31:08.303Z,21.20
2022-08-01T00:33:54.957Z,21.10
2022-08-01T00:36:40.546Z,21.10
2022-08-01T00:39:26.112Z,21.10
2022-08-01T00:42:13.602Z,21.20
2022-08-01T00:44:59.033Z,21.10
2022-08-01T00:47:44.718Z,21.10
2022-08-01T00:50:30.219Z,21.10
2022-08-01T00:53:18.993Z,21.10
2022-08-01T00:56:05.245Z,21.10
2022-08-01T00:58:50.978Z,20.80
2022-08-01T01:01:39.551Z,20.90
2022-08-01T01:04:25.752Z,20.80
2022-08-01T01:07:15.039Z,20.70
2022-08-01T01:10:31.604Z,20.60
2022-08-01T01:13:50.348Z,20.50
2022-08-01T01:16:41.819Z,20.50
2022-08-01T01:19:34.185Z,20.80
2022-08-01T01:22:42.281Z,20.70
2022-08-01T01:26:03.316Z,20.50
2022-08-01T01:29:00.487Z,20.60
2022-08-01T01:31:52.517Z,20.60
2022-08-01T01:34:40.949Z,20.60
2022-08-01T01:37:28.229Z,20.60
2022-08-01T01:40:16.309Z,20.40
2022-08-01T01:43:01.778Z,20.30
2022-08-01T01:45:49.097Z,20.10
2022-08-01T01:48:40.884Z,19.80
2022-08-01T01:51:28.368Z,19.70
2022-08-01T01:54:13.981Z,19.80
2022-08-01T01:57:01.687Z,20.00
2022-08-01T01:59:48.916Z,20.10
2022-08-01T02:02:37.209Z,20.10
2022-08-01T02:05:23.652Z,20.00
2022-08-01T02:08:11.907Z,20.00
2022-08-01T02:11:17.668Z,19.90
2022-08-01T02:14:05.150Z,19.90
2022-08-01T02:16:51.706Z,19.90
2022-08-01T02:19:42.741Z,19.90
2022-08-01T02:22:54.323Z,19.80
2022-08-01T02:26:09.985Z,19.80
2022-08-01T02:29:06.683Z,19.70
2022-08-01T02:31:55.632Z,19.70
2022-08-01T02:34:44.327Z,19.70
2022-08-01T02:37:34.318Z,19.60
2022-08-01T02:40:21.016Z,19.60
2022-08-01T02:43:07.926Z,19.60
2022-08-01T02:46:03.633Z,19.50
2022-08-01T02:48:53.415Z,19.40
2022-08-01T02:51:40.778Z,19.40
2022-08-01T02:54:27.610Z,19.40
2022-08-01T02:57:15.151Z,19.40
2022-08-01T03:00:05.159Z,19.40
2022-08-01T03:02:55.780Z,19.40
2022-08-01T03:05:45.706Z,19.40
2022-08-01T03:08:31.615Z,19.40
2022-08-01T03:11:18.182Z,19.40
2022-08-01T03:14:07.653Z,19.30
2022-08-01T03:16:55.078Z,19.30
2022-08-01T03:19:41.772Z,19.30
2022-08-01T03:22:29.734Z,19.30
2022-08-01T03:25:17.410Z,19.10
2022-08-01T03:28:05.651Z,18.60
2022-08-01T03:30:52.428Z,18.30
2022-08-01T03:33:38.052Z,18.20
2022-08-01T03:36:27.777Z,18.20
2022-08-01T03:39:16.437Z,18.20
2022-08-01T03:42:15.152Z,18.10
2022-08-01T03:45:07.815Z,18.20
2022-08-01T03:48:06.274Z,18.40
2022-08-01T03:50:52.973Z,18.50
2022-08-01T03:53:42.330Z,18.70
2022-08-01T03:56:32.852Z,18.80
2022-08-01T03:59:19.222Z,18.90
2022-08-01T04:02:05.846Z,18.90
2022-08-01T04:04:51.654Z,18.90
2022-08-01T04:07:37.312Z,18.80
2022-08-01T04:10:24.355Z,18.80
2022-08-01T04:13:10.070Z,18.80
2022-08-01T04:15:56.839Z,18.90
2022-08-01T04:18:42.303Z,18.90
2022-08-01T04:21:31.983Z,18.90
2022-08-01T04:24:18.701Z,18.90
2022-08-01T04:27:10.685Z,19.00
2022-08-01T04:29:59.802Z,19.00
2022-08-01T04:32:47.263Z,19.10
2022-08-01T04:36:04.078Z,19.10
2022-08-01T04:38:41.060Z,19.10
2022-08-01T04:41:27.333Z,19.20
2022-08-01T04:44:14.171Z,19.10
2022-08-01T04:47:04.787Z,19.20
2022-08-01T04:49:51.006Z,19.30
2022-08-01T04:52:38.083Z,19.40
2022-08-01T04:55:24.023Z,19.50
2022-08-01T04:58:17.696Z,19.60
2022-08-01T05:01:04.381Z,19.60
2022-08-01T05:03:49.827Z,19.70
2022-08-01T05:06:35.390Z,19.70
2022-08-01T05:09:21.479Z,19.80
2022-08-01T05:12:08.113Z,19.90
2022-08-01T05:14:53.891Z,20.00
2022-08-01T05:17:39.457Z,20.10
2022-08-01T05:20:25.317Z,20.30
2022-08-01T05:23:19.271Z,20.40
2022-08-01T05:26:16.749Z,20.50
2022-08-01T05:29:02.342Z,20.50
2022-08-01T05:31:48.067Z,20.60
2022-08-01T05:34:33.623Z,20.70
2022-08-01T05:37:19.218Z,20.80
2022-08-01T05:40:05.666Z,20.90
2022-08-01T05:42:51.097Z,21.10
2022-08-01T05:45:38.387Z,21.20
2022-08-01T05:48:23.888Z,21.30
2022-08-01T05:51:09.440Z,21.40
2022-08-01T05:53:55.058Z,21.50
2022-08-01T05:56:40.787Z,21.60
2022-08-01T05:59:27.050Z,21.70
2022-08-01T06:02:12.525Z,21.90
2022-08-01T06:04:58.048Z,22.00
2022-08-01T06:07:43.685Z,22.10
2022-08-01T06:10:29.395Z,22.20
2022-08-01T06:13:15.339Z,22.30
2022-08-01T06:16:01.003Z,22.30
2022-08-01T06:18:46.506Z,22.40
2022-08-01T06:21:31.973Z,22.50
2022-08-01T06:24:17.427Z,22.70
2022-08-01T06:27:03.749Z,22.90
2022-08-01T06:30:08.554Z,23.10
2022-08-01T06:32:56.790Z,23.20
2022-08-01T06:35:42.620Z,23.40
2022-08-01T06:38:28.124Z,23.60
2022-08-01T06:41:13.450Z,23.70
2022-08-01T06:44:00.896Z,23.80
2022-08-01T06:46:46.366Z,23.90
2022-08-01T06:49:31.947Z,23.90
2022-08-01T06:52:17.369Z,24.00
2022-08-01T06:55:03.997Z,24.10
2022-08-01T06:57:51.983Z,24.20
2022-08-01T07:00:37.922Z,24.30
2022-08-01T07:03:24.434Z,24.30
2022-08-01T07:06:10.666Z,24.30
2022-08-01T07:08:56.781Z,24.40
2022-08-01T07:11:42.707Z,24.40
2022-08-01T07:14:28.684Z,24.50
2022-08-01T07:17:14.359Z,24.70
2022-08-01T07:19:59.791Z,24.80
2022-08-01T07:22:48.223Z,25.00
2022-08-01T07:25:34.325Z,25.10
2022-08-01T07:28:20.878Z,25.20
2022-08-01T07:31:06.436Z,25.30
2022-08-01T07:33:52.225Z,25.40
2022-08-01T07:36:37.791Z,25.50
2022-08-01T07:39:23.598Z,25.60
2022-08-01T07:42:10.005Z,25.70
2022-08-01T07:44:55.630Z,25.70
2022-08-01T07:47:41.149Z,25.90
2022-08-01T07:50:26.687Z,25.90
2022-08-01T07:53:12.909Z,25.90
2022-08-01T07:55:58.452Z,26.00
2022-08-01T07:58:44.483Z,26.20
2022-08-01T08:01:30.279Z,26.30
2022-08-01T08:04:15.686Z,26.50
2022-08-01T08:07:01.322Z,26.60
2022-08-01T08:09:51.048Z,26.70
2022-08-01T08:12:36.785Z,26.60
2022-08-01T08:15:22.509Z,26.80
2022-08-01T08:18:08.105Z,26.90
2022-08-01T08:20:54.141Z,27.00
2022-08-01T08:23:58.820Z,27.30
2022-08-01T08:26:44.279Z,27.40
2022-08-01T08:29:32.760Z,27.60
2022-08-01T08:32:18.341Z,27.70
2022-08-01T08:35:04.740Z,27.70
2022-08-01T08:37:50.398Z,27.70
2022-08-01T08:40:41.804Z,27.70
2022-08-01T08:43:27.742Z,27.90
2022-08-01T08:46:15.169Z,28.00
2022-08-01T08:49:06.512Z,28.20
2022-08-01T08:51:53.881Z,28.40
2022-08-01T08:54:41.908Z,28.30
2022-08-01T08:57:27.438Z,28.50
2022-08-01T09:00:14.985Z,28.70
2022-08-01T09:03:00.575Z,28.70
2022-08-01T09:05:48.531Z,28.70
2022-08-01T09:08:37.641Z,28.80
2022-08-01T09:11:24.239Z,29.00
2022-08-01T09:14:14.791Z,29.00
2022-08-01T09:17:08.617Z,29.20
2022-08-01T09:19:57.840Z,29.30
2022-08-01T09:22:47.747Z,29.40
2022-08-01T09:25:52.712Z,29.50
2022-08-01T09:28:38.765Z,29.60
2022-08-01T09:31:28.122Z,29.60
2022-08-01T09:34:29.593Z,29.80
2022-08-01T09:37:18.291Z,29.90
2022-08-01T09:40:10.364Z,30.20
2022-08-01T09:43:12.215Z,30.00
2022-08-01T09:46:12.639Z,29.90
2022-08-01T09:49:07.325Z,30.10
2022-08-01T09:51:58.867Z,30.20
2022-08-01T09:54:53.269Z,30.40
2022-08-01T09:57:41.156Z,30.60
2022-08-01T10:00:44.144Z,30.70
2022-08-01T10:03:31.015Z,30.80
2022-08-01T10:06:25.463Z,30.90
2022-08-01T10:09:15.179Z,31.20
2022-08-01T10:12:15.929Z,31.40
2022-08-01T10:18:36.180Z,31.70
2022-08-01T10:21:49.234Z,31.80
2022-08-01T10:24:35.559Z,32.00
2022-08-01T10:27:35.775Z,31.90
2022-08-01T10:30:29.829Z,31.90
2022-08-01T10:33:51.695Z,32.10
2022-08-01T10:36:29.158Z,32.10
2022-08-01T10:39:15.516Z,32.10
2022-08-01T10:42:10.774Z,32.20
2022-08-01T10:44:57.688Z,32.30
2022-08-01T10:47:59.998Z,32.70
2022-08-01T10:50:53.451Z,32.80
2022-08-01T10:53:48.527Z,32.90
2022-08-01T10:56:45.486Z,32.90
2022-08-01T10:59:50.813Z,32.90
2022-08-01T11:02:41.699Z,32.70
2022-08-01T11:05:36.013Z,32.40
2022-08-01T11:08:24.805Z,32.40
2022-08-01T11:11:10.648Z,32.70
2022-08-01T11:13:59.175Z,33.10
2022-08-01T11:16:45.126Z,33.30
2022-08-01T11:20:08.241Z,33.30
2022-08-01T11:23:05.878Z,33.40
2022-08-01T11:26:06.634Z,33.10
2022-08-01T11:29:21.877Z,33.10
2022-08-01T11:32:28.070Z,33.30
2022-08-01T11:35:17.017Z,33.30
2022-08-01T11:38:29.370Z,33.40
2022-08-01T11:41:15.010Z,33.20
2022-08-01T11:44:20.876Z,33.40
2022-08-01T11:47:11.559Z,33.70
2022-08-01T11:50:00.570Z,33.80
2022-08-01T11:52:46.559Z,33.80
2022-08-01T11:55:32.896Z,33.40
2022-08-01T11:58:27.758Z,33.50
2022-08-01T12:01:17.962Z,33.60
2022-08-01T12:04:04.269Z,34.10
2022-08-01T12:06:50.934Z,34.30
2022-08-01T12:09:36.503Z,34.00
2022-08-01T12:12:22.073Z,34.10
2022-08-01T12:15:09.962Z,33.90
2022-08-01T12:18:05.561Z,33.00
2022-08-01T12:20:58.449Z,33.20
2022-08-01T12:23:44.285Z,33.10
2022-08-01T12:26:42.697Z,33.80
2022-08-01T12:29:48.526Z,34.10
2022-08-01T12:32:37.469Z,34.00
2022-08-01T12:35:28.508Z,33.40
2022-08-01T12:38:27.855Z,33.00
2022-08-01T12:41:14.176Z,33.00
2022-08-01T12:44:00.443Z,33.30
2022-08-01T12:46:46.665Z,33.80
2022-08-01T12:49:34.342Z,33.90
2022-08-01T12:52:23.253Z,33.90
2022-08-01T12:55:21.061Z,33.60
2022-08-01T12:58:15.800Z,33.40
2022-08-01T13:01:11.949Z,32.80
2022-08-01T13:04:04.897Z,32.90
2022-08-01T13:06:55.146Z,33.40
2022-08-01T13:09:51.160Z,33.50
2022-08-01T13:12:37.008Z,33.40
2022-08-01T13:15:25.235Z,33.40
2022-08-01T13:18:31.902Z,33.40
2022-08-01T13:21:23.242Z,33.40
2022-08-01T13:24:13.568Z,33.20
2022-08-01T13:27:01.983Z,33.30
2022-08-01T13:29:50.749Z,33.60
2022-08-01T13:32:36.500Z,34.00
2022-08-01T13:35:22.804Z,34.20
2022-08-01T13:38:08.319Z,34.00
2022-08-01T13:40:59.829Z,34.10
2022-08-01T13:43:58.000Z,34.00
2022-08-01T13:46:49.510Z,33.80
2022-08-01T13:49:38.065Z,33.70
2022-08-01T13:52:24.033Z,33.20
2022-08-01T13:55:11.123Z,32.90
2022-08-01T13:57:57.092Z,33.00
2022-08-01T14:00:42.939Z,33.30
2022-08-01T14:03:33.557Z,33.60
2022-08-01T14:06:21.580Z,33.30
2022-08-01T14:09:18.000Z,33.00
2022-08-01T14:12:09.919Z,32.60
2022-08-01T14:14:55.369Z,32.20
2022-08-01T14:17:40.745Z,32.20
2022-08-01T14:20:34.265Z,32.50
2022-08-01T14:23:19.742Z,32.80
2022-08-01T14:26:11.559Z,33.10
2022-08-01T14:28:57.688Z,33.40
2022-08-01T14:31:43.245Z,33.60
2022-08-01T14:34:28.853Z,33.60
2022-08-01T14:37:14.357Z,33.70
2022-08-01T14:40:06.142Z,33.90
2022-08-01T14:42:52.899Z,33.70
2022-08-01T14:45:38.422Z,33.30
2022-08-01T14:48:23.804Z,33.40
2022-08-01T14:51:09.749Z,33.30
2022-08-01T14:53:55.554Z,33.00
2022-08-01T14:56:40.957Z,32.70
2022-08-01T14:59:26.529Z,32.40
2022-08-01T15:02:12.292Z,32.10
2022-08-01T15:04:58.118Z,31.90
2022-08-01T15:07:53.725Z,31.70
2022-08-01T15:10:39.909Z,31.60
2022-08-01T15:13:25.377Z,31.60
2022-08-01T15:16:11.938Z,31.50
2022-08-01T15:18:58.187Z,31.40
2022-08-01T15:21:43.665Z,31.20
2022-08-01T15:24:29.381Z,30.50
2022-08-01T15:27:15.247Z,30.60
2022-08-01T15:30:00.697Z,30.70
2022-08-01T15:32:46.660Z,30.90
2022-08-01T15:35:36.728Z,30.90
2022-08-01T15:38:22.753Z,31.00
2022-08-01T15:41:08.698Z,30.90
2022-08-01T15:43:56.278Z,31.00
2022-08-01T15:46:42.099Z,30.50
2022-08-01T15:49:28.679Z,30.20
2022-08-01T15:52:21.779Z,29.70
2022-08-01T15:55:09.061Z,29.70
2022-08-01T15:57:54.906Z,29.90
2022-08-01T16:00:40.514Z,30.00
2022-08-01T16:03:27.678Z,30.10
2022-08-01T16:06:13.504Z,29.70
2022-08-01T16:08:59.108Z,29.50
2022-08-01T16:11:50.922Z,29.50
2022-08-01T16:14:36.608Z,29.30
2022-08-01T16:17:22.218Z,29.40
2022-08-01T16:20:08.526Z,29.40
2022-08-01T16:22:54.352Z,29.20
2022-08-01T16:25:39.993Z,29.10
2022-08-01T16:28:25.654Z,29.00
2022-08-01T16:31:37.231Z,29.00
2022-08-01T16:34:17.304Z,29.00
2022-08-01T16:37:02.705Z,29.00
2022-08-01T16:39:48.187Z,29.00
2022-08-01T16:42:33.774Z,28.90
2022-08-01T16:45:21.228Z,28.80
2022-08-01T16:48:07.176Z,28.70
2022-08-01T16:50:57.886Z,28.50
2022-08-01T16:53:43.269Z,28.40
2022-08-01T16:56:28.972Z,28.40
2022-08-01T16:59:14.473Z,28.30
2022-08-01T17:02:02.452Z,28.20
2022-08-01T17:04:49.727Z,28.00
2022-08-01T17:07:36.577Z,28.00
2022-08-01T17:10:22.141Z,27.80
2022-08-01T17:13:07.905Z,27.60
2022-08-01T17:15:55.246Z,27.40
2022-08-01T17:18:40.899Z,27.30
2022-08-01T17:21:26.899Z,27.10
2022-08-01T17:24:16.603Z,27.00
2022-08-01T17:27:02.875Z,26.70
2022-08-01T17:29:48.832Z,26.60
2022-08-01T17:32:37.299Z,26.40
2022-08-01T17:35:22.983Z,26.40
2022-08-01T17:38:08.556Z,26.20
2022-08-01T17:40:54.095Z,26.00
2022-08-01T17:43:39.619Z,25.90
2022-08-01T17:46:25.240Z,25.60
2022-08-01T17:49:10.805Z,25.40
2022-08-01T17:51:56.475Z,25.30
2022-08-01T17:54:42.130Z,25.40
2022-08-01T17:57:28.851Z,25.50
2022-08-01T18:00:15.045Z,25.60
2022-08-01T18:03:00.930Z,25.70
2022-08-01T18:05:48.317Z,25.70
2022-08-01T18:08:48.066Z,25.30
2022-08-01T18:11:37.195Z,25.10
2022-08-01T18:14:34.762Z,25.30
2022-08-01T18:17:26.847Z,25.50
2022-08-01T18:20:12.489Z,25.40
2022-08-01T18:22:58.052Z,25.10
2022-08-01T18:25:43.888Z,24.80
2022-08-01T18:28:35.386Z,24.70
2022-08-01T18:31:24.534Z,23.90
2022-08-01T18:34:10.197Z,23.80
2022-08-01T18:36:56.422Z,23.50
2022-08-01T18:39:43.803Z,23.50
2022-08-01T18:42:29.545Z,23.60
2022-08-01T18:45:15.274Z,23.70
2022-08-01T18:48:02.065Z,23.60
2022-08-01T18:50:47.717Z,23.50
2022-08-01T18:53:33.853Z,23.50
2022-08-01T18:56:20.004Z,23.30
2022-08-01T18:59:05.997Z,22.60
2022-08-01T19:01:51.589Z,21.90
2022-08-01T19:04:37.382Z,21.30
2022-08-01T19:07:33.659Z,20.80
2022-08-01T19:10:29.309Z,20.30
2022-08-01T19:13:16.735Z,20.00
2022-08-01T19:16:02.459Z,19.80
2022-08-01T19:18:48.827Z,19.90
2022-08-01T19:21:35.308Z,20.20
2022-08-01T19:24:23.255Z,20.60
2022-08-01T19:27:12.937Z,20.90
2022-08-01T19:30:02.226Z,21.10
2022-08-01T19:32:49.046Z,21.20
2022-08-01T19:35:35.982Z,21.20
2022-08-01T19:38:22.157Z,20.80
2022-08-01T19:41:07.660Z,20.90
2022-08-01T19:44:01.780Z,21.00
2022-08-01T19:46:47.581Z,21.00
2022-08-01T19:49:33.500Z,21.00
2022-08-01T19:52:25.142Z,21.00
2022-08-01T19:55:11.853Z,20.80
2022-08-01T20:01:24.653Z,20.90
2022-08-01T20:04:11.287Z,20.30
2022-08-01T20:06:57.055Z,20.10
2022-08-01T20:09:46.617Z,20.10
2022-08-01T20:12:33.130Z,20.40
2022-08-01T20:15:19.230Z,20.70
2022-08-01T20:18:05.204Z,20.50
2022-08-01T20:21:01.420Z,20.20
2022-08-01T20:23:53.385Z,20.10
2022-08-01T20:26:50.255Z,19.90
2022-08-01T20:29:37.236Z,19.70
2022-08-01T20:32:27.758Z,19.60
2022-08-01T20:35:13.502Z,19.60
2022-08-01T20:38:05.784Z,19.60
2022-08-01T20:40:53.530Z,19.50
2022-08-01T20:43:39.415Z,19.80
2022-08-01T20:46:26.993Z,20.00
2022-08-01T20:49:12.707Z,19.80
2022-08-01T20:51:58.600Z,19.80
2022-08-01T20:54:45.071Z,20.00
2022-08-01T20:57:31.342Z,20.20
2022-08-01T21:00:20.347Z,20.30
2022-08-01T21:03:16.727Z,20.30
2022-08-01T21:06:14.726Z,20.30
2022-08-01T21:09:03.947Z,20.40
2022-08-01T21:12:03.718Z,20.30
2022-08-01T21:15:01.186Z,20.30
2022-08-01T21:17:56.972Z,20.20
2022-08-01T21:20:46.481Z,20.10
2022-08-01T21:23:43.975Z,20.00
2022-08-01T21:26:31.149Z,20.00
2022-08-01T21:29:20.105Z,19.90
2022-08-01T21:32:14.669Z,19.90
2022-08-01T21:35:01.840Z,19.90
2022-08-01T21:37:52.627Z,19.70
2022-08-01T21:40:38.388Z,19.30
2022-08-01T21:43:23.886Z,19.30
2022-08-01T21:46:10.472Z,19.10
2022-08-01T21:48:57.896Z,19.30
2022-08-01T21:51:51.887Z,19.50
2022-08-01T21:54:56.817Z,19.40
2022-08-01T21:58:03.972Z,19.10
2022-08-01T22:00:58.008Z,19.20
2022-08-01T22:03:50.731Z,19.20
2022-08-01T22:06:37.403Z,19.30
2022-08-01T22:09:24.260Z,19.30
2022-08-01T22:12:16.077Z,19.30
2022-08-01T22:15:06.071Z,19.40
2022-08-01T22:17:51.782Z,19.40
2022-08-01T22:20:37.919Z,19.30
2022-08-01T22:23:23.889Z,19.20
2022-08-01T22:26:11.128Z,19.00
2022-08-01T22:28:56.974Z,18.60
2022-08-01T22:31:42.775Z,18.30
2022-08-01T22:34:28.878Z,18.20
2022-08-01T22:37:15.071Z,18.10
2022-08-01T22:40:03.565Z,18.10
2022-08-01T22:42:59.888Z,18.10
2022-08-01T22:45:51.552Z,18.00
2022-08-01T22:49:14.491Z,18.00
2022-08-01T22:52:18.929Z,18.00
2022-08-01T22:55:07.620Z,18.00
2022-08-01T22:57:59.395Z,18.00
2022-08-01T23:00:50.509Z,18.20
2022-08-01T23:03:44.282Z,18.20
2022-08-01T23:06:41.383Z,18.10
2022-08-01T23:09:53.083Z,18.10
2022-08-01T23:12:34.989Z,18.10
2022-08-01T23:15:21.819Z,18.20
2022-08-01T23:18:08.254Z,18.30
2022-08-01T23:20:58.728Z,18.20
2022-08-01T23:23:46.458Z,18.40
2022-08-01T23:26:32.944Z,18.30
2022-08-01T23:29:18.694Z,18.30
2022-08-01T23:32:04.453Z,18.30
2022-08-01T23:34:50.235Z,18.30
2022-08-01T23:37:37.564Z,18.20
2022-08-01T23:40:24.965Z,18.30
2022-08-01T23:43:16.879Z,18.50
2022-08-01T23:46:05.513Z,18.70
2022-08-01T23:48:51.165Z,18.80
2022-08-01T23:51:36.543Z,18.60
2022-08-01T23:54:22.610Z,18.60
2022-08-01T23:57:09.747Z,18.40
2022-08-01T23:59:59.336Z,18.50
